Time;durP1;ratioP1;P1;durP2;ratioP2;P2;SDS_P1;SDS_P2;PMS_P1;PMS_P2;Temp;Humidity;BMP_temperature;BMP_pressure;BME280_temperature;BME280_humidity;BME280_pressure;Samples;Min_cycle;Max_cycle;Signal;HPM_P1;HPM_P2
2022/12/16 00:02:24;;;;;;;20.63;12.40;;;;;;;4.53;100.00;9884.59;5094322;28;20554;-62
2022/12/16 00:04:51;;;;;;;26.03;13.33;;;;;;;4.63;100.00;10204.16;5093997;28;20223;-61
2022/12/16 00:07:17;;;;;;;14.13;12.73;;;;;;;4.45;100.00;12422.50;5094230;28;20192;-62
2022/12/16 00:09:46;;;;;;;22.30;15.43;;;;;;;4.58;100.00;11790.59;5093854;28;20191;-61
2022/12/16 00:12:12;;;;;;;18.13;14.97;;;;;;;4.64;100.00;11792.06;5094093;28;20639;-62
2022/12/16 00:14:39;;;;;;;25.60;14.73;;;;;;;4.66;100.00;11474.94;5094132;28;20188;-62
2022/12/16 00:17:06;;;;;;;17.87;15.00;;;;;;;4.72;100.00;10523.63;5093958;28;20504;-61
2022/12/16 00:19:33;;;;;;;18.63;16.33;;;;;;;4.90;100.00;9257.28;5093859;28;20560;-62
2022/12/16 00:22:00;;;;;;;25.30;15.27;;;;;;;4.98;100.00;8941.47;5093095;28;20184;-62
2022/12/16 00:24:27;;;;;;;18.13;13.97;;;;;;;4.89;100.00;12433.56;5092628;28;20586;-61
2022/12/16 00:26:55;;;;;;;15.30;12.50;;;;;;;5.09;100.00;9261.03;5093333;28;20721;-63
2022/12/16 00:29:22;;;;;;;12.33;11.43;;;;;;;5.35;100.00;6407.94;5093577;28;20184;-61
2022/12/16 00:31:48;;;;;;;18.03;15.13;;;;;;;5.58;100.00;6093.94;5093814;28;20188;-61
2022/12/16 00:34:16;;;;;;;18.73;14.20;;;;;;;5.56;100.00;12132.22;5093706;28;20184;-62
2022/12/16 00:36:43;;;;;;;20.00;14.30;;;;;;;5.64;100.00;11179.88;5093872;28;20203;-61
2022/12/16 00:39:10;;;;;;;14.53;13.23;;;;;;;5.76;100.00;6414.22;5093450;28;20310;-62
2022/12/16 00:41:40;;;;;;;14.20;12.87;;;;;;;6.07;100.00;-882.88;5093225;28;20184;-63
2022/12/16 00:44:09;;;;;;;17.90;12.90;;;;;;;6.54;100.00;-881.22;5093265;28;20184;-62
2022/12/16 00:46:36;;;;;;;17.17;12.57;;;;;;;6.78;100.00;707.44;5093469;28;20552;-62
2022/12/16 00:49:03;;;;;;;13.73;12.47;;;;;;;6.94;100.00;1661.75;5093144;28;20284;-62
2022/12/16 00:51:30;;;;;;;13.77;11.77;;;;;;;7.18;100.00;2935.59;5093399;28;20188;-61
2022/12/16 00:53:57;;;;;;;13.23;12.13;;;;;;;7.25;100.00;2618.19;5093071;28;20188;-62
2022/12/16 00:56:24;;;;;;;12.83;11.73;;;;;;;7.30;100.00;1664.53;5093314;28;20649;-61
2022/12/16 00:58:51;;;;;;;22.80;11.73;;;;;;;7.51;100.00;2302.41;5092924;28;20196;-62
2022/12/16 01:01:19;;;;;;;13.40;12.27;;;;;;;7.55;100.00;1984.59;5093322;28;20564;-61
2022/12/16 01:03:46;;;;;;;16.33;14.73;;;;;;;7.61;100.00;2303.28;5093364;28;20191;-63
2022/12/16 01:06:16;;;;;;;24.13;15.90;;;;;;;7.56;100.00;6760.59;5092789;28;20208;-61
2022/12/16 01:08:47;;;;;;;22.90;18.00;;;;;;;7.46;100.00;13455.97;5093072;28;20562;-61
2022/12/16 01:11:14;;;;;;;25.43;18.03;;;;;;;7.34;100.00;16965.34;5092654;28;20223;-62
2022/12/16 01:13:41;;;;;;;23.73;18.90;;;;;;;7.35;100.00;16965.69;5093009;28;20603;-61
2022/12/16 01:16:08;;;;;;;24.37;15.97;;;;;;;7.26;100.00;16962.72;5092472;28;20191;-61
2022/12/16 01:18:37;;;;;;;30.50;18.33;;;;;;;7.22;100.00;18239.56;5092569;28;20294;-62
2022/12/16 01:21:05;;;;;;;28.27;19.50;;;;;;;7.12;100.00;18874.97;5092457;28;20265;-62
2022/12/16 01:23:32;;;;;;;32.27;18.90;;;;;;;7.15;100.00;17917.63;5092467;28;20195;-61
2022/12/16 01:26:01;;;;;;;28.40;19.50;;;;;;;7.19;100.00;17599.31;5092317;28;20236;-62
2022/12/16 01:28:28;;;;;;;29.07;18.87;;;;;;;7.08;100.00;15999.00;5092429;28;20184;-61
2022/12/16 01:31:00;;;;;;;31.67;20.70;;;;;;;7.15;100.00;14404.88;5092622;28;20550;-61
2022/12/16 01:33:27;;;;;;;28.33;20.60;;;;;;;7.18;100.00;11215.59;5091079;28;20226;-61
2022/12/16 01:36:01;;;;;;;29.67;20.30;;;;;;;7.05;100.00;6115.84;5092390;28;20192;-62
2022/12/16 01:38:28;;;;;;;28.87;19.83;;;;;;;7.05;100.00;3570.34;5092210;28;20222;-63
2022/12/16 01:40:54;;;;;;;24.57;19.60;;;;;;;7.03;100.00;1980.28;5092582;28;20554;-62
2022/12/16 01:43:26;;;;;;;26.87;20.63;;;;;;;7.20;100.00;1027.91;5092594;28;20215;-61
2022/12/16 01:45:58;;;;;;;28.93;20.83;;;;;;;7.15;100.00;-3736.88;5092004;28;20249;-61
2022/12/16 01:48:35;;;;;;;26.23;20.77;;;;;;;7.19;100.00;-5958.13;5092024;28;20188;-61
2022/12/16 01:51:08;;;;;;;25.50;18.20;;;;;;;7.29;100.00;-4689.28;5092123;28;20657;-62
2022/12/16 01:53:37;;;;;;;28.97;19.47;;;;;;;7.24;100.00;-3419.50;5092153;28;20641;-61
2022/12/16 01:56:05;;;;;;;26.53;20.20;;;;;;;7.30;100.00;-3102.00;5092142;28;20188;-61
2022/12/16 01:58:36;;;;;;;35.93;21.37;;;;;;;7.39;100.00;-3737.13;5092011;28;20300;-61
2022/12/16 02:01:03;;;;;;;36.83;21.53;;;;;;;7.33;100.00;-4689.41;5092061;28;20563;-62
2022/12/16 02:03:32;;;;;;;33.30;20.87;;;;;;;7.56;100.00;-5007.50;5091982;28;20179;-62
2022/12/16 02:05:59;;;;;;;32.23;21.10;;;;;;;7.59;100.00;-4690.06;5091602;28;20211;-61
2022/12/16 02:08:29;;;;;;;36.03;21.70;;;;;;;7.41;100.00;-3737.13;5091993;28;20505;-62
2022/12/16 02:11:08;;;;;;;38.80;22.03;;;;;;;7.60;100.00;-4372.53;5091945;28;20540;-61
2022/12/16 02:13:50;;;;;;;27.43;21.20;;;;;;;7.71;100.00;-5007.94;5091935;28;20184;-61
2022/12/16 02:16:24;;;;;;;35.23;21.27;;;;;;;7.81;100.00;-5008.25;5091866;28;20184;-62
2022/12/16 02:19:00;;;;;;;38.53;20.93;;;;;;;7.77;100.00;-5008.13;5091845;28;20523;-62
2022/12/16 02:21:47;;;;;;;35.57;23.33;;;;;;;7.91;100.00;-4055.41;5091801;28;20625;-60
2022/12/16 02:24:53;;;;;;;32.00;23.77;;;;;;;7.87;100.00;-4690.75;5091464;28;20184;-61
2022/12/16 02:27:43;;;;;;;36.73;24.23;;;;;;;8.05;100.00;-5326.72;5075814;28;20717;-61
2022/12/16 02:30:44;;;;;;;28.00;20.10;;;;;;;8.19;100.00;-6280.41;5091370;28;20199;-62
2022/12/16 02:33:28;;;;;;;29.47;21.50;;;;;;;8.24;100.00;-8186.34;5091320;28;20195;-61
2022/12/16 02:36:02;;;;;;;27.07;19.27;;;;;;;8.34;100.00;-7551.97;5091458;28;20283;-62
2022/12/16 02:38:38;;;;;;;26.00;19.37;;;;;;;8.46;100.00;-6917.38;5091563;28;20545;-62
2022/12/16 02:41:12;;;;;;;21.87;18.70;;;;;;;8.46;100.00;-6599.59;5091519;28;20610;-62
2022/12/16 02:43:52;;;;;;;19.93;17.80;;;;;;;8.71;100.00;-5965.09;5091821;28;20183;-62
2022/12/16 02:46:24;;;;;;;19.13;17.13;;;;;;;8.81;100.00;-5329.38;5090685;28;20204;-62
2022/12/16 02:48:52;;;;;;;19.83;17.83;;;;;;;8.93;100.00;-5011.63;5091876;28;20184;-62
2022/12/16 02:51:20;;;;;;;23.17;18.03;;;;;;;9.11;100.00;-4375.53;5091190;28;20184;-63
2022/12/16 02:53:48;;;;;;;19.00;16.97;;;;;;;9.09;100.00;-3738.78;5091496;28;20551;-63
2022/12/16 02:56:30;;;;;;;18.43;16.53;;;;;;;9.17;100.00;-3420.41;5091319;28;20559;-62
2022/12/16 02:59:08;;;;;;;19.00;15.57;;;;;;;9.20;100.00;-4057.31;5091333;28;20192;-63
2022/12/16 03:01:46;;;;;;;17.80;16.17;;;;;;;9.28;100.00;-4375.88;5091344;28;20188;-61
2022/12/16 03:04:19;;;;;;;17.03;15.47;;;;;;;9.30;100.00;-4694.34;5090982;28;20188;-62
2022/12/16 03:06:50;;;;;;;17.80;15.90;;;;;;;9.39;100.00;-5013.00;5089992;28;20200;-62
2022/12/16 03:09:21;;;;;;;16.07;14.67;;;;;;;9.52;100.00;-5331.88;5091239;28;20184;-62
2022/12/16 03:11:50;;;;;;;15.83;14.03;;;;;;;9.52;100.00;-5331.88;5091220;28;20320;-62
2022/12/16 03:14:20;;;;;;;15.50;14.10;;;;;;;9.63;100.00;-5332.25;5091257;28;20211;-62
2022/12/16 03:16:50;;;;;;;14.93;13.73;;;;;;;9.68;100.00;-5332.44;5090857;28;20185;-62
2022/12/16 03:19:19;;;;;;;14.50;13.33;;;;;;;9.76;100.00;-5651.25;5090847;28;20188;-62
2022/12/16 03:21:52;;;;;;;13.47;12.17;;;;;;;9.75;100.00;-5969.78;5090732;28;20195;-63
2022/12/16 03:24:19;;;;;;;14.13;13.10;;;;;;;9.69;100.00;-6606.41;5090836;28;20196;-62
2022/12/16 03:26:56;;;;;;;15.07;13.77;;;;;;;9.83;100.00;-6925.63;5090678;28;20235;-63
2022/12/16 03:29:30;;;;;;;12.73;11.83;;;;;;;9.74;100.00;-7561.84;5090820;28;20196;-63
2022/12/16 03:32:00;;;;;;;12.27;11.23;;;;;;;9.91;100.00;-7881.53;5091026;28;20184;-62
2022/12/16 03:34:35;;;;;;;12.57;11.63;;;;;;;9.99;100.00;-8200.56;5090776;28;20188;-62
2022/12/16 03:37:04;;;;;;;12.97;11.80;;;;;;;10.01;100.00;-9155.88;5091122;28;20203;-62
2022/12/16 03:39:34;;;;;;;11.27;10.57;;;;;;;10.09;100.00;-10111.66;5090969;28;20557;-62
2022/12/16 03:42:03;;;;;;;11.87;11.03;;;;;;;10.04;100.00;-11065.72;5090634;28;20639;-62
2022/12/16 03:44:31;;;;;;;12.03;11.23;;;;;;;10.05;100.00;-11065.94;5090933;28;20623;-63
2022/12/16 03:46:59;;;;;;;12.43;11.53;;;;;;;10.04;100.00;-11383.94;5090431;28;20215;-62
2022/12/16 03:49:26;;;;;;;11.77;11.17;;;;;;;10.02;100.00;-11065.47;5090886;28;20279;-62
2022/12/16 03:51:55;;;;;;;11.20;10.50;;;;;;;10.06;100.00;-10429.56;5090516;28;20184;-65
2022/12/16 03:54:22;;;;;;;12.60;11.70;;;;;;;10.11;100.00;-10748.41;5090826;28;20555;-62
2022/12/16 03:56:49;;;;;;;11.73;11.10;;;;;;;10.21;100.00;-10113.00;5090521;28;20188;-62
2022/12/16 03:59:16;;;;;;;11.93;11.13;;;;;;;10.21;100.00;-9794.63;5093958;28;20195;-62
2022/12/16 04:01:43;;;;;;;12.10;11.20;;;;;;;10.22;100.00;-10113.06;5094102;28;20192;-62
2022/12/16 04:04:11;;;;;;;13.90;13.00;;;;;;;10.27;100.00;-10432.03;5093989;28;20191;-62
2022/12/16 04:06:38;;;;;;;12.63;11.63;;;;;;;10.23;100.00;-10431.56;5094272;28;20595;-62
2022/12/16 04:09:05;;;;;;;13.03;12.23;;;;;;;10.29;100.00;-10750.63;5094186;28;20283;-63
2022/12/16 04:25:22;;;;;;;12.57;11.77;;;;;;;10.61;100.00;-10117.44;5093665;28;20223;-62
2022/12/16 04:27:49;;;;;;;12.77;11.83;;;;;;;10.56;100.00;-10116.88;5093832;28;20575;-62
2022/12/16 04:30:21;;;;;;;12.17;11.27;;;;;;;10.65;100.00;-9799.25;5093921;28;20185;-62
